Time;durP1;ratioP1;P1;durP2;ratioP2;P2;SDS_P1;SDS_P2;PMS_P1;PMS_P2;Temp;Humidity;BMP_temperature;BMP_pressure;BME280_temperature;BME280_humidity;BME280_pressure;Samples;Min_cycle;Max_cycle;Signal;HPM_P1;HPM_P2
2022/07/16 00:02:42;;;;;;;0.30;0.30;;;21.60;84.70;;;;;;5070668;28;19970;-66
2022/07/16 00:05:08;;;;;;;;;;;21.60;84.60;;;;;;5069514;28;20074;-64
2022/07/16 00:07:34;;;;;;;0.35;0.35;;;21.60;84.70;;;;;;5069737;28;20243;-66
2022/07/16 00:09:59;;;;;;;;;;;21.60;84.60;;;;;;5070333;28;20040;-66
2022/07/16 00:12:26;;;;;;;0.30;0.30;;;21.60;84.80;;;;;;5071221;28;20361;-67
2022/07/16 00:14:52;;;;;;;0.30;0.30;;;21.50;84.50;;;;;;5071966;28;20036;-65
2022/07/16 00:17:18;;;;;;;;;;;21.60;84.60;;;;;;5071651;28;20059;-68
2022/07/16 00:19:44;;;;;;;0.30;0.30;;;21.50;84.70;;;;;;5071600;28;19920;-66
2022/07/16 00:22:09;;;;;;;0.32;0.30;;;21.50;84.50;;;;;;5070662;28;20056;-67
2022/07/16 00:24:36;;;;;;;0.30;0.30;;;21.50;84.60;;;;;;5068990;28;20052;-68
2022/07/16 00:27:02;;;;;;;0.30;0.30;;;21.60;84.70;;;;;;5071789;28;20028;-67
2022/07/16 00:29:28;;;;;;;1.15;0.50;;;21.50;84.60;;;;;;5071229;28;20133;-66
2022/07/16 00:31:54;;;;;;;;;;;21.50;84.70;;;;;;5071984;28;20508;-69
2022/07/16 00:34:21;;;;;;;0.63;0.30;;;21.50;84.70;;;;;;5070132;28;20006;-68
2022/07/16 00:36:48;;;;;;;0.35;0.35;;;21.50;84.70;;;;;;5070318;28;20040;-65
2022/07/16 00:39:15;;;;;;;0.40;0.40;;;21.50;84.70;;;;;;5070058;28;20040;-68
2022/07/16 00:41:43;;;;;;;0.65;0.63;;;21.50;84.70;;;;;;5071481;28;20075;-67
2022/07/16 00:44:11;;;;;;;0.30;0.30;;;21.50;84.70;;;;;;5070700;28;20055;-68
2022/07/16 00:46:39;;;;;;;0.40;0.30;;;21.50;84.70;;;;;;5071148;28;20040;-68
2022/07/16 00:49:06;;;;;;;0.30;0.30;;;21.50;84.80;;;;;;5071153;28;20050;-67
2022/07/16 00:51:34;;;;;;;1.15;0.40;;;21.80;85.00;;;;;;5070485;28;20040;-67
2022/07/16 00:54:00;;;;;;;0.20;0.20;;;21.50;84.80;;;;;;5070696;28;20097;-68
2022/07/16 00:56:26;;;;;;;0.52;0.52;;;21.50;84.80;;;;;;5070595;28;20036;-69
2022/07/16 00:58:54;;;;;;;1.00;0.30;;;21.50;84.80;;;;;;5071204;28;20119;-67
2022/07/16 01:01:20;;;;;;;0.75;0.45;;;21.50;84.90;;;;;;5068679;28;20132;-67
2022/07/16 01:03:46;;;;;;;0.55;0.55;;;21.50;84.90;;;;;;5070890;28;20040;-68
2022/07/16 01:06:13;;;;;;;0.50;0.50;;;21.50;84.90;;;;;;5069740;28;20045;-67
2022/07/16 01:08:45;;;;;;;0.20;0.20;;;21.50;84.90;;;;;;5070192;28;20040;-68
2022/07/16 01:11:13;;;;;;;0.30;0.30;;;21.50;84.90;;;;;;5070618;28;20048;-67
2022/07/16 01:13:41;;;;;;;0.30;0.30;;;21.50;84.90;;;;;;5069987;28;20075;-69
2022/07/16 01:16:08;;;;;;;0.40;0.40;;;21.50;84.90;;;;;;5069111;28;20127;-61
2022/07/16 01:18:35;;;;;;;0.45;0.30;;;21.50;84.90;;;;;;5069873;28;20044;-68
2022/07/16 01:21:01;;;;;;;0.60;0.60;;;21.50;84.90;;;;;;5069791;28;20127;-67
2022/07/16 01:23:27;;;;;;;0.40;0.40;;;21.50;84.90;;;;;;5069513;28;20274;-68
2022/07/16 01:25:53;;;;;;;;;;;21.50;84.90;;;;;;5070941;28;20541;-67
2022/07/16 01:28:20;;;;;;;0.75;0.50;;;21.50;84.90;;;;;;5070440;28;19916;-68
2022/07/16 01:30:47;;;;;;;0.65;0.50;;;21.50;84.90;;;;;;5070627;28;20048;-68
2022/07/16 01:33:24;;;;;;;0.47;0.47;;;21.50;84.90;;;;;;5070090;28;20040;-65
2022/07/16 01:35:52;;;;;;;0.60;0.50;;;21.50;84.90;;;;;;5069598;28;20440;-68
2022/07/16 01:38:18;;;;;;;0.52;0.45;;;21.50;84.90;;;;;;5069211;28;20366;-65
2022/07/16 01:40:43;;;;;;;;;;;21.50;85.00;;;;;;5070807;28;20102;-68
2022/07/16 01:43:14;;;;;;;0.38;0.38;;;21.50;84.90;;;;;;5070666;28;19923;-61
2022/07/16 01:45:40;;;;;;;0.35;0.30;;;21.50;84.90;;;;;;5070485;28;20048;-68
2022/07/16 01:48:06;;;;;;;;;;;21.50;84.90;;;;;;5071157;28;20041;-66
2022/07/16 01:50:31;;;;;;;0.30;0.30;;;21.50;84.90;;;;;;5068995;28;20417;-68
2022/07/16 01:52:57;;;;;;;;;;;21.50;84.90;;;;;;5056591;28;20482;-68
2022/07/16 01:55:23;;;;;;;0.32;0.32;;;21.50;85.00;;;;;;5048858;28;20365;-67
2022/07/16 01:57:48;;;;;;;0.20;0.20;;;21.50;84.90;;;;;;5058433;28;20060;-65
2022/07/16 02:00:14;;;;;;;1.30;0.50;;;21.50;84.80;;;;;;5054708;28;20137;-68
2022/07/16 02:02:40;;;;;;;0.35;0.35;;;21.50;84.90;;;;;;5070693;28;20040;-68
2022/07/16 02:05:06;;;;;;;;;;;21.50;84.90;;;;;;5070038;28;20047;-65
2022/07/16 02:07:31;;;;;;;0.55;0.40;;;21.50;84.90;;;;;;5070014;28;19931;-68
2022/07/16 02:09:57;;;;;;;0.28;0.28;;;21.50;84.90;;;;;;5069504;28;20385;-67
2022/07/16 02:12:23;;;;;;;0.28;0.28;;;21.50;84.90;;;;;;5069990;28;20044;-68
2022/07/16 02:14:48;;;;;;;0.20;0.20;;;21.50;84.90;;;;;;5069723;28;20113;-67
2022/07/16 02:17:14;;;;;;;0.38;0.38;;;21.50;84.90;;;;;;5065163;28;20037;-60
2022/07/16 02:19:40;;;;;;;0.30;0.30;;;21.50;84.90;;;;;;5049842;28;20432;-67
2022/07/16 02:22:07;;;;;;;0.30;0.30;;;21.50;84.90;;;;;;5057715;28;20041;-67
2022/07/16 02:24:33;;;;;;;0.20;0.20;;;21.50;84.90;;;;;;5068779;28;20068;-67
2022/07/16 02:26:59;;;;;;;;;;;21.50;84.90;;;;;;5070808;28;20045;-67
2022/07/16 02:29:25;;;;;;;0.75;0.35;;;21.50;84.90;;;;;;5069730;28;20247;-67
2022/07/16 02:31:50;;;;;;;0.52;0.50;;;21.50;84.90;;;;;;5071617;28;20048;-68
2022/07/16 02:34:16;;;;;;;;;;;21.50;84.90;;;;;;5073277;28;20040;-68
2022/07/16 02:36:42;;;;;;;0.30;0.30;;;21.50;84.90;;;;;;5072658;28;19917;-67
2022/07/16 02:39:07;;;;;;;0.38;0.38;;;21.40;84.80;;;;;;5072888;28;20053;-67
2022/07/16 02:41:34;;;;;;;0.30;0.30;;;21.50;84.90;;;;;;5055668;28;20052;-67
2022/07/16 02:44:00;;;;;;;0.30;0.30;;;21.50;84.90;;;;;;5073843;28;20382;-67
2022/07/16 02:46:25;;;;;;;;;;;21.40;84.80;;;;;;5073436;28;20041;-67
2022/07/16 02:48:51;;;;;;;0.25;0.25;;;21.50;84.90;;;;;;5073578;28;19920;-67
2022/07/16 02:51:17;;;;;;;0.47;0.45;;;21.40;84.90;;;;;;5072163;28;20047;-61
2022/07/16 02:53:42;;;;;;;;;;;21.40;84.90;;;;;;5073240;28;20051;-67
2022/07/16 02:56:08;;;;;;;1.38;0.60;;;21.50;85.00;;;;;;5073558;28;20376;-65
2022/07/16 02:58:34;;;;;;;0.50;0.50;;;21.50;84.90;;;;;;5072985;28;20052;-68
2022/07/16 03:00:59;;;;;;;;;;;21.40;84.90;;;;;;5073144;28;20048;-67
2022/07/16 03:03:25;;;;;;;0.20;0.20;;;21.50;85.00;;;;;;5072806;28;19975;-67
2022/07/16 03:05:51;;;;;;;0.20;0.20;;;21.40;84.90;;;;;;5072279;28;20066;-67
2022/07/16 03:08:17;;;;;;;0.35;0.30;;;21.40;84.90;;;;;;5072765;28;20056;-60
2022/07/16 03:10:42;;;;;;;;;;;21.40;84.90;;;;;;5073370;28;20048;-67
2022/07/16 03:13:08;;;;;;;0.45;0.30;;;21.40;85.10;;;;;;5073249;28;19916;-67
2022/07/16 03:15:34;;;;;;;0.52;0.50;;;21.40;84.90;;;;;;5072470;28;20136;-67
2022/07/16 03:17:59;;;;;;;0.75;0.73;;;21.40;84.90;;;;;;5073052;28;20510;-65
2022/07/16 03:20:25;;;;;;;0.35;0.30;;;21.40;85.00;;;;;;5069529;28;20119;-67
2022/07/16 03:22:51;;;;;;;0.40;0.40;;;21.40;85.00;;;;;;5072881;28;20051;-66
2022/07/16 03:25:17;;;;;;;0.30;0.30;;;21.40;85.00;;;;;;5070235;28;20055;-60
2022/07/16 03:27:43;;;;;;;0.43;0.43;;;21.40;85.00;;;;;;5072806;28;20080;-66
2022/07/16 03:30:09;;;;;;;0.52;0.50;;;21.40;85.10;;;;;;5071464;28;20044;-67
2022/07/16 03:32:35;;;;;;;0.50;0.50;;;21.40;85.00;;;;;;5072354;28;20055;-67
2022/07/16 03:35:05;;;;;;;;;;;21.40;85.10;;;;;;5071563;28;20044;-65
2022/07/16 03:37:30;;;;;;;0.45;0.30;;;21.40;85.10;;;;;;5071675;28;20365;-65
2022/07/16 03:39:56;;;;;;;;;;;21.40;85.00;;;;;;5072348;28;20102;-66
2022/07/16 03:42:21;;;;;;;0.30;0.30;;;21.40;85.10;;;;;;5071368;28;19927;-65
2022/07/16 03:44:47;;;;;;;;;;;21.40;85.00;;;;;;5073099;28;20055;-67
2022/07/16 03:47:13;;;;;;;0.30;0.25;;;21.40;85.10;;;;;;5072365;28;19952;-66
2022/07/16 03:49:38;;;;;;;0.10;0.10;;;21.40;85.00;;;;;;5071888;28;20615;-67
2022/07/16 03:52:04;;;;;;;0.40;0.40;;;21.40;85.10;;;;;;5087113;28;20044;-67
2022/07/16 03:54:30;;;;;;;0.30;0.30;;;21.40;85.10;;;;;;5070936;28;20051;-67
2022/07/16 03:56:55;;;;;;;;;;;21.40;85.10;;;;;;5072782;28;20062;-66
2022/07/16 03:59:21;;;;;;;0.50;0.47;;;21.40;85.10;;;;;;5071794;28;19916;-62
2022/07/16 04:01:47;;;;;;;0.32;0.32;;;21.40;85.10;;;;;;5072125;28;20041;-66
2022/07/16 04:04:12;;;;;;;0.40;0.30;;;21.40;85.10;;;;;;5071846;28;20051;-67
2022/07/16 04:06:38;;;;;;;;;;;21.40;85.10;;;;;;5070715;28;20075;-67
2022/07/16 04:09:03;;;;;;;0.35;0.35;;;21.40;85.20;;;;;;5071107;28;19920;-67
2022/07/16 04:11:29;;;;;;;0.73;0.40;;;21.40;85.10;;;;;;5071540;28;20474;-67
2022/07/16 04:13:55;;;;;;;0.40;0.40;;;21.40;85.10;;;;;;5072110;28;20040;-67
2022/07/16 04:16:20;;;;;;;;;;;21.40;85.20;;;;;;5071967;28;20037;-60
2022/07/16 04:18:46;;;;;;;0.32;0.32;;;21.40;85.20;;;;;;5071588;28;19916;-67
2022/07/16 04:21:12;;;;;;;;;;;21.40;85.20;;;;;;5071011;28;20044;-66
2022/07/16 04:23:37;;;;;;;0.30;0.30;;;21.40;85.30;;;;;;5070491;28;19970;-68
2022/07/16 04:26:03;;;;;;;0.57;0.50;;;21.40;85.20;;;;;;5071795;28;20052;-68
2022/07/16 04:28:29;;;;;;;;;;;21.40;85.20;;;;;;5071744;28;20056;-68
2022/07/16 04:30:55;;;;;;;0.30;0.30;;;21.40;85.30;;;;;;5071536;28;19927;-68
2022/07/16 04:33:20;;;;;;;0.50;0.40;;;21.40;85.20;;;;;;5071552;28;20095;-64
2022/07/16 04:35:48;;;;;;;;;;;21.40;85.20;;;;;;5070480;28;20040;-67
2022/07/16 04:38:14;;;;;;;0.32;0.32;;;21.40;85.30;;;;;;5071138;28;20396;-68
2022/07/16 04:40:40;;;;;;;0.30;0.30;;;21.40;85.20;;;;;;5069205;28;20135;-67
2022/07/16 04:43:05;;;;;;;;;;;21.40;85.20;;;;;;5069227;28;20139;-69
2022/07/16 04:45:31;;;;;;;0.35;0.35;;;21.40;85.30;;;;;;5070673;28;19924;-65
2022/07/16 04:47:57;;;;;;;0.40;0.40;;;21.40;85.20;;;;;;5071489;28;20040;-70
2022/07/16 04:50:22;;;;;;;1.13;0.68;;;21.40;85.20;;;;;;5068672;28;20045;-61
2022/07/16 04:52:48;;;;;;;0.43;0.43;;;21.40;85.30;;;;;;5071172;28;20503;-68
2022/07/16 04:55:14;;;;;;;0.38;0.38;;;21.40;85.30;;;;;;5069621;28;20731;-68
2022/07/16 04:57:39;;;;;;;;;;;21.40;85.30;;;;;;5071282;28;20040;-68
2022/07/16 05:00:06;;;;;;;0.40;0.40;;;21.40;85.30;;;;;;5071001;28;19960;-67
2022/07/16 05:05:19;;;;;;;0.40;0.40;;;21.40;85.30;;;;;;5069828;28;20051;-69
2022/07/16 05:07:46;;;;;;;0.40;0.40;;;21.40;85.30;;;;;;5070260;28;20604;-67
2022/07/16 05:10:12;;;;;;;0.50;0.50;;;21.50;85.30;;;;;;5070208;28;20437;-68
2022/07/16 05:12:38;;;;;;;;;;;21.50;85.30;;;;;;5071057;28;20137;-68
2022/07/16 05:15:04;;;;;;;1.23;0.70;;;21.50;85.30;;;;;;5070813;28;20353;-68
2022/07/16 05:17:29;;;;;;;0.30;0.30;;;21.50;85.30;;;;;;5070469;28;20047;-69
2022/07/16 05:19:55;;;;;;;;;;;21.50;85.30;;;;;;5086708;28;20460;-70
2022/07/16 05:22:21;;;;;;;0.50;0.50;;;21.50;85.30;;;;;;5069995;28;19921;-69
2022/07/16 05:24:46;;;;;;;1.02;0.50;;;21.50;85.20;;;;;;5068824;28;20067;-69
2022/07/16 05:27:12;;;;;;;1.40;0.40;;;21.50;85.20;;;;;;5070617;28;20040;-67
2022/07/16 05:29:38;;;;;;;0.65;0.40;;;21.50;85.20;;;;;;5070204;28;20037;-67
2022/07/16 05:32:04;;;;;;;0.40;0.40;;;21.50;85.20;;;;;;5070342;28;20075;-67
2022/07/16 05:34:29;;;;;;;0.30;0.30;;;21.50;85.20;;;;;;5070269;28;20039;-70
2022/07/16 05:36:55;;;;;;;;;;;21.50;85.20;;;;;;5069959;28;20032;-72
2022/07/16 05:39:20;;;;;;;0.52;0.52;;;21.50;85.20;;;;;;5066863;28;19921;-69
2022/07/16 05:41:46;;;;;;;;;;;21.50;85.20;;;;;;5070704;28;20732;-68
2022/07/16 05:44:12;;;;;;;0.80;0.63;;;21.50;85.20;;;;;;5086434;28;20354;-69
2022/07/16 05:46:37;;;;;;;0.47;0.45;;;21.50;85.10;;;;;;5069604;28;20040;-70
2022/07/16 05:49:03;;;;;;;0.50;0.40;;;21.50;85.10;;;;;;5070822;28;20036;-69
2022/07/16 05:51:29;;;;;;;0.30;0.30;;;21.50;85.00;;;;;;5069246;28;20041;-62
2022/07/16 05:53:54;;;;;;;1.00;0.50;;;21.50;85.10;;;;;;5069892;28;20047;-67
2022/07/16 05:56:20;;;;;;;0.63;0.60;;;21.50;85.10;;;;;;5070449;28;20470;-68
2022/07/16 05:58:45;;;;;;;0.73;0.68;;;21.60;85.20;;;;;;5069893;28;20099;-68
2022/07/16 06:01:11;;;;;;;0.98;0.47;;;21.60;85.20;;;;;;5070285;28;20063;-68
2022/07/16 06:03:37;;;;;;;0.32;0.32;;;21.60;85.20;;;;;;5069521;28;20067;-68
2022/07/16 06:06:03;;;;;;;0.50;0.50;;;21.60;85.10;;;;;;5071443;28;20067;-67
2022/07/16 06:08:28;;;;;;;0.30;0.30;;;21.50;85.10;;;;;;5073329;28;20048;-61
2022/07/16 06:10:54;;;;;;;;;;;21.60;85.20;;;;;;5074919;28;20120;-69
2022/07/16 06:13:19;;;;;;;0.50;0.50;;;21.50;85.00;;;;;;5086246;28;19921;-68
2022/07/16 06:15:48;;;;;;;0.40;0.40;;;21.60;85.10;;;;;;5053601;28;20052;-68
2022/07/16 06:18:14;;;;;;;0.40;0.40;;;21.60;85.10;;;;;;5054206;28;20458;-70
2022/07/16 06:20:39;;;;;;;;;;;21.60;85.10;;;;;;5062081;28;20046;-70
2022/07/16 06:23:05;;;;;;;0.55;0.40;;;21.60;85.10;;;;;;5074168;28;19920;-69
2022/07/16 06:25:32;;;;;;;0.50;0.50;;;21.60;85.10;;;;;;5072791;28;20059;-62
2022/07/16 06:27:58;;;;;;;1.17;0.65;;;21.60;85.10;;;;;;5074097;28;20044;-69
2022/07/16 06:30:24;;;;;;;2.45;0.80;;;21.60;85.10;;;;;;5073837;28;20051;-69
2022/07/16 06:32:49;;;;;;;;;;;21.60;85.10;;;;;;5073187;28;20152;-69
2022/07/16 06:35:15;;;;;;;0.73;0.55;;;21.60;85.10;;;;;;5071192;28;20265;-69
2022/07/16 06:37:40;;;;;;;;;;;21.60;85.10;;;;;;5070766;28;20037;-68
2022/07/16 06:40:07;;;;;;;0.43;0.43;;;21.60;85.10;;;;;;5072807;28;19924;-67
2022/07/16 06:42:33;;;;;;;0.45;0.30;;;21.60;85.10;;;;;;5073433;28;20136;-61
2022/07/16 06:44:59;;;;;;;;;;;21.50;85.00;;;;;;5073845;28;20136;-70
2022/07/16 06:47:24;;;;;;;3.35;1.05;;;21.60;85.10;;;;;;5073366;28;19974;-70
2022/07/16 06:49:50;;;;;;;0.38;0.38;;;21.60;85.10;;;;;;5072914;28;20051;-70
2022/07/16 06:52:16;;;;;;;0.52;0.50;;;21.60;85.10;;;;;;5072759;28;20537;-69
2022/07/16 06:54:42;;;;;;;0.40;0.40;;;21.50;85.00;;;;;;5071738;28;20105;-69
2022/07/16 06:57:07;;;;;;;0.85;0.70;;;21.60;85.10;;;;;;5072936;28;20054;-70
2022/07/16 06:59:33;;;;;;;;;;;21.60;85.10;;;;;;5073498;28;20036;-61
2022/07/16 07:01:59;;;;;;;0.40;0.32;;;21.60;85.10;;;;;;5073323;28;19990;-68
2022/07/16 07:04:24;;;;;;;0.55;0.50;;;21.60;85.10;;;;;;5073248;28;20084;-68
2022/07/16 07:06:50;;;;;;;0.52;0.52;;;21.60;85.10;;;;;;5071032;28;20032;-69
2022/07/16 07:09:16;;;;;;;0.35;0.35;;;21.60;85.10;;;;;;5072054;28;20109;-69
2022/07/16 07:11:42;;;;;;;3.83;0.45;;;21.60;85.10;;;;;;5071639;28;20056;-70
2022/07/16 07:14:08;;;;;;;0.50;0.50;;;21.60;85.10;;;;;;5073419;28;20084;-70
2022/07/16 07:16:34;;;;;;;0.70;0.50;;;21.60;85.10;;;;;;5072168;28;20049;-61
2022/07/16 07:18:59;;;;;;;;;;;21.60;85.10;;;;;;5072561;28;20528;-70
2022/07/16 07:21:26;;;;;;;1.58;0.45;;;21.60;85.10;;;;;;5071569;28;19924;-70
2022/07/16 07:23:52;;;;;;;1.83;0.63;;;21.60;85.10;;;;;;5071174;28;20165;-69
2022/07/16 07:26:18;;;;;;;1.05;0.57;;;21.60;85.10;;;;;;5073492;28;20044;-69
2022/07/16 07:28:43;;;;;;;;;;;21.60;85.00;;;;;;5073652;28;20097;-70
2022/07/16 07:31:09;;;;;;;0.52;0.52;;;21.60;85.00;;;;;;5073451;28;19925;-69
2022/07/16 07:33:36;;;;;;;0.35;0.35;;;21.60;85.00;;;;;;5073597;28;20040;-61
2022/07/16 07:36:03;;;;;;;2.00;0.63;;;21.60;85.00;;;;;;5071914;28;20137;-66
2022/07/16 07:38:29;;;;;;;0.63;0.40;;;21.60;85.00;;;;;;5071957;28;20385;-65
2022/07/16 07:40:54;;;;;;;;;;;21.60;85.00;;;;;;5072425;28;20119;-67
2022/07/16 07:43:20;;;;;;;0.40;0.40;;;21.60;84.90;;;;;;5072922;28;19920;-68
2022/07/16 07:45:46;;;;;;;1.08;0.88;;;21.60;84.90;;;;;;5072332;28;20051;-69
2022/07/16 07:48:13;;;;;;;0.57;0.38;;;21.60;84.90;;;;;;5072753;28;20481;-68
2022/07/16 07:50:39;;;;;;;1.85;0.57;;;21.60;84.90;;;;;;5071465;28;20129;-61
2022/07/16 07:53:05;;;;;;;;;;;21.50;84.80;;;;;;5073461;28;20462;-69
2022/07/16 07:55:32;;;;;;;0.55;0.43;;;21.60;84.80;;;;;;5071597;28;19923;-66
2022/07/16 07:57:57;;;;;;;1.30;0.77;;;21.60;84.90;;;;;;5072293;28;20378;-69
2022/07/16 08:00:23;;;;;;;;;;;21.60;84.80;;;;;;5072312;28;20047;-69
2022/07/16 08:02:49;;;;;;;0.45;0.40;;;21.60;85.40;;;;;;5071131;28;19924;-68
2022/07/16 08:05:15;;;;;;;1.45;0.63;;;21.60;84.80;;;;;;5071195;28;20091;-69
2022/07/16 08:07:42;;;;;;;0.40;0.40;;;21.60;84.80;;;;;;5071747;28;20110;-61
2022/07/16 08:10:08;;;;;;;1.08;0.77;;;21.60;84.80;;;;;;5071233;28;20044;-69
2022/07/16 08:12:35;;;;;;;1.42;0.70;;;21.60;84.70;;;;;;5072260;28;20055;-69
2022/07/16 08:15:00;;;;;;;0.70;0.60;;;21.60;84.70;;;;;;5071356;28;20083;-65
2022/07/16 08:17:26;;;;;;;;;;;21.60;84.70;;;;;;5071261;28;20075;-69
2022/07/16 08:19:52;;;;;;;1.63;0.43;;;21.60;84.70;;;;;;5070873;28;19916;-68
2022/07/16 08:22:17;;;;;;;0.85;0.60;;;21.60;84.70;;;;;;5071011;28;20083;-68
2022/07/16 08:27:28;;;;;;;1.35;0.50;;;21.60;84.60;;;;;;5066588;28;20044;-67
2022/07/16 08:29:53;;;;;;;;;;;21.60;84.70;;;;;;5069710;28;20098;-68
2022/07/16 08:32:19;;;;;;;1.02;0.60;;;21.60;84.60;;;;;;5068949;28;19920;-68
2022/07/16 08:34:44;;;;;;;0.57;0.47;;;21.60;84.60;;;;;;5068506;28;20033;-61
2022/07/16 08:37:11;;;;;;;1.50;0.60;;;21.60;84.60;;;;;;5068297;28;20044;-68
2022/07/16 08:39:42;;;;;;;1.52;0.50;;;21.60;84.60;;;;;;5064206;28;20044;-68
2022/07/16 08:42:10;;;;;;;0.82;0.43;;;21.60;84.60;;;;;;5068908;28;20053;-66
2022/07/16 08:44:40;;;;;;;0.40;0.40;;;21.60;84.50;;;;;;5068213;28;20043;-68
2022/07/16 08:47:08;;;;;;;0.55;0.50;;;21.60;84.50;;;;;;5066986;28;20071;-67
2022/07/16 08:49:35;;;;;;;0.43;0.43;;;21.70;84.50;;;;;;5068283;28;20669;-68
2022/07/16 08:52:02;;;;;;;1.55;0.43;;;21.70;84.50;;;;;;5065227;28;20036;-68
2022/07/16 08:54:29;;;;;;;1.00;0.60;;;21.70;84.50;;;;;;5066596;28;20526;-68
2022/07/16 08:56:55;;;;;;;1.33;0.57;;;21.60;84.50;;;;;;5064319;28;20540;-69
2022/07/16 08:59:21;;;;;;;0.50;0.43;;;21.60;84.50;;;;;;5068250;28;20044;-69
2022/07/16 09:01:47;;;;;;;1.02;0.55;;;21.70;84.50;;;;;;5061052;28;20089;-62
2022/07/16 09:04:13;;;;;;;0.40;0.40;;;21.70;84.50;;;;;;5066478;28;20389;-68
2022/07/16 09:06:39;;;;;;;0.95;0.70;;;21.70;84.50;;;;;;5037380;28;20044;-64
2022/07/16 09:09:04;;;;;;;1.80;0.70;;;21.70;84.50;;;;;;5028089;28;20049;-66
2022/07/16 09:11:32;;;;;;;0.60;0.60;;;21.70;84.40;;;;;;5049461;28;20493;-68
2022/07/16 09:14:06;;;;;;;0.40;0.40;;;21.70;84.40;;;;;;5068111;28;20107;-72
2022/07/16 09:16:38;;;;;;;0.90;0.52;;;21.70;84.30;;;;;;5069095;28;20115;-66
2022/07/16 09:19:10;;;;;;;0.50;0.40;;;21.70;84.30;;;;;;5068875;28;20049;-67
2022/07/16 09:21:37;;;;;;;0.57;0.50;;;21.70;84.30;;;;;;5069545;28;20502;-68
2022/07/16 09:24:04;;;;;;;0.75;0.60;;;21.70;84.20;;;;;;5067206;28;20421;-66
2022/07/16 09:26:30;;;;;;;1.25;0.60;;;21.70;84.20;;;;;;5066569;28;20098;-68
2022/07/16 09:29:01;;;;;;;0.65;0.45;;;21.70;84.20;;;;;;5068103;28;20036;-68
2022/07/16 09:31:38;;;;;;;1.75;0.80;;;21.70;84.20;;;;;;5066920;28;20044;-65
2022/07/16 09:34:15;;;;;;;0.50;0.43;;;21.70;84.10;;;;;;5068738;28;20041;-69
2022/07/16 09:36:56;;;;;;;1.35;0.95;;;21.70;84.00;;;;;;5066131;28;20045;-67
2022/07/16 09:39:22;;;;;;;1.63;0.55;;;21.70;83.90;;;;;;5053440;28;20067;-68
2022/07/16 09:41:48;;;;;;;0.50;0.50;;;21.70;84.00;;;;;;5070344;28;20078;-65
2022/07/16 09:44:23;;;;;;;2.65;0.40;;;21.70;83.90;;;;;;5070494;28;20052;-70
2022/07/16 09:47:02;;;;;;;2.13;1.30;;;21.70;82.60;;;;;;5070470;28;20043;-70
2022/07/16 09:49:30;;;;;;;0.50;0.50;;;21.70;81.40;;;;;;5070557;28;20133;-69
2022/07/16 09:51:55;;;;;;;1.67;0.50;;;21.60;81.50;;;;;;5069120;28;20048;-68
2022/07/16 09:54:29;;;;;;;0.57;0.40;;;21.60;82.00;;;;;;5069757;28;20049;-65
2022/07/16 09:57:26;;;;;;;0.55;0.55;;;21.60;81.20;;;;;;5070066;28;20036;-70
2022/07/16 09:59:53;;;;;;;5.07;1.15;;;21.60;80.30;;;;;;5061308;28;20053;-62
2022/07/16 10:02:19;;;;;;;2.33;1.10;;;21.60;81.00;;;;;;5070378;28;20076;-67
2022/07/16 10:04:44;;;;;;;;;;;21.60;80.70;;;;;;5069743;28;20106;-70
2022/07/16 10:07:10;;;;;;;0.60;0.60;;;21.60;79.50;;;;;;5069021;28;19920;-71
2022/07/16 10:09:36;;;;;;;3.28;0.85;;;21.60;80.40;;;;;;5069308;28;20135;-70
2022/07/16 10:12:13;;;;;;;1.67;0.82;;;21.60;80.20;;;;;;5069292;28;20052;-65
2022/07/16 10:14:45;;;;;;;5.38;0.93;;;21.60;78.20;;;;;;5068075;28;20080;-64
2022/07/16 10:17:41;;;;;;;0.60;0.40;;;21.50;77.80;;;;;;5069757;28;20048;-64
2022/07/16 10:20:11;;;;;;;6.28;0.60;;;21.50;76.10;;;;;;5067725;28;20052;-62
2022/07/16 10:22:44;;;;;;;0.50;0.40;;;;;;;;;;5069917;28;20048;-68
2022/07/16 10:25:12;;;;;;;0.73;0.40;;;;;;;;;;5067209;28;20068;-67
2022/07/16 10:27:38;;;;;;;2.25;0.80;;;;;;;;;;5067314;28;20103;-68
2022/07/16 10:30:09;;;;;;;0.65;0.55;;;;;;;;;;5067687;28;20063;-66
2022/07/16 10:32:54;;;;;;;2.83;0.63;;;;;;;;;;5066082;28;20044;-67
2022/07/16 10:35:40;;;;;;;0.52;0.30;;;;;;;;;;5065121;28;20047;-69
2022/07/16 10:38:14;;;;;;;1.80;0.63;;;;;;;;;;5066599;28;20046;-67
2022/07/16 10:40:41;;;;;;;2.33;0.88;;;;;;;;;;5065832;28;20044;-69
2022/07/16 10:43:12;;;;;;;3.00;0.63;;;;;;;;;;5067751;28;20946;-69
2022/07/16 10:45:54;;;;;;;1.30;0.50;;;;;;;;;;5068019;28;20041;-67
2022/07/16 10:48:21;;;;;;;5.05;0.85;;;;;;;;;;5073368;28;20501;-67
2022/07/16 10:51:06;;;;;;;3.80;0.60;;;;;;;;;;5067123;28;20044;-68
2022/07/16 10:53:52;;;;;;;1.10;0.63;;;;;;;;;;5069569;28;20032;-67
2022/07/16 10:56:36;;;;;;;1.52;0.60;;;;;;;;;;5068989;28;20407;-66
2022/07/16 10:59:02;;;;;;;3.63;0.98;;;;;;;;;;5069717;28;20112;-67
2022/07/16 11:01:29;;;;;;;3.42;1.10;;;;;;;;;;5071270;28;20040;-67
2022/07/16 11:03:55;;;;;;;1.15;0.60;;;;;;;;;;5071417;28;20037;-67
2022/07/16 11:06:22;;;;;;;1.45;0.70;;;;;;;;;;5070159;28;20044;-68
2022/07/16 11:08:58;;;;;;;1.85;0.60;;;;;;;;;;5070465;28;20051;-67
2022/07/16 11:11:31;;;;;;;2.65;0.50;;;;;;;;;;5071006;28;20055;-64
2022/07/16 11:13:57;;;;;;;2.08;0.73;;;;;;;;;;5068954;28;20470;-61
2022/07/16 11:16:23;;;;;;;1.75;0.55;;;;;;;;;;5070993;28;20099;-67
2022/07/16 11:18:49;;;;;;;;;;;;;;;;;;5072502;28;20478;-65
2022/07/16 11:21:15;;;;;;;2.13;0.70;;;;;;;;;;5070658;28;19917;-68
2022/07/16 11:24:00;;;;;;;0.95;0.50;;;;;;;;;;5071522;28;20517;-67
2022/07/16 11:26:29;;;;;;;2.13;0.50;;;;;;;;;;5073193;28;20477;-68
2022/07/16 11:28:55;;;;;;;4.50;0.82;;;;;;;;;;5073089;28;20048;-68
2022/07/16 11:31:24;;;;;;;2.40;0.60;;;;;;;;;;5072320;28;20051;-68
2022/07/16 11:33:52;;;;;;;0.80;0.60;;;;;;;;;;5072436;28;20436;-67
2022/07/16 11:36:19;;;;;;;0.73;0.30;;;;;;;;;;5052307;28;20588;-66
2022/07/16 11:38:46;;;;;;;0.88;0.40;;;;;;;;;;5051874;28;20090;-68
2022/07/16 11:41:12;;;;;;;1.42;0.57;;;;;;;;;;5045736;28;20048;-65
2022/07/16 11:43:38;;;;;;;4.25;0.90;;;;;;;;;;5028569;28;20200;-66
2022/07/16 11:46:04;;;;;;;0.85;0.75;;;;;;;;;;5006147;28;20219;-61
2022/07/16 11:48:37;;;;;;;3.15;0.50;;;;;;;;;;5005622;28;21020;-63
2022/07/16 11:51:07;;;;;;;3.92;0.98;;;;;;;;;;5065608;28;20145;-63
2022/07/16 11:53:36;;;;;;;2.53;0.40;;;;;;;;;;5068614;28;20076;-69
2022/07/16 11:56:02;;;;;;;2.67;0.70;;;;;;;;;;5068733;28;20066;-61
2022/07/16 11:58:29;;;;;;;0.70;0.70;;;;;;;;;;5052363;28;20499;-70
2022/07/16 12:00:55;;;;;;;0.80;0.57;;;;;;;;;;5063998;28;20045;-69
2022/07/16 12:03:21;;;;;;;1.15;0.57;;;;;;;;;;5071562;28;20052;-61
2022/07/16 12:05:47;;;;;;;1.67;0.60;;;;;;;;;;5070975;28;20382;-66
2022/07/16 12:08:14;;;;;;;1.02;0.65;;;;;;;;;;5071583;28;20076;-64
2022/07/16 12:10:41;;;;;;;2.28;0.75;;;;;;;;;;5057366;28;20508;-71
2022/07/16 12:13:08;;;;;;;2.25;0.75;;;;;;;;;;5051734;28;20098;-71
2022/07/16 12:15:53;;;;;;;1.02;0.50;;;;;;;;;;5051979;28;20076;-70
2022/07/16 12:18:19;;;;;;;2.95;0.73;;;;;;;;;;5051542;28;20044;-70
2022/07/16 12:20:45;;;;;;;0.80;0.57;;;;;;;;;;5061299;28;20393;-69
2022/07/16 12:23:13;;;;;;;0.70;0.57;;;;;;;;;;5067844;28;20044;-71
2022/07/16 12:25:43;;;;;;;2.97;0.95;;;;;;;;;;5050688;28;20059;-71
2022/07/16 12:28:09;;;;;;;5.47;1.23;;;;;;;;;;5051620;28;20064;-71
2022/07/16 12:30:35;;;;;;;1.80;0.70;;;;;;;;;;5051652;28;20067;-71
2022/07/16 12:33:02;;;;;;;1.65;0.65;;;;;;;;;;5062191;28;20125;-71
2022/07/16 12:35:48;;;;;;;4.68;1.02;;;;;;;;;;5051812;28;20060;-69
2022/07/16 12:38:33;;;;;;;1.13;0.55;;;;;;;;;;5050954;28;20037;-71
2022/07/16 12:40:59;;;;;;;2.15;0.70;;;;;;;;;;5062805;28;20044;-72
2022/07/16 12:43:25;;;;;;;2.33;0.60;;;;;;;;;;5071092;28;20040;-72
2022/07/16 12:45:51;;;;;;;0.52;0.50;;;;;;;;;;5071104;28;20131;-68
2022/07/16 12:48:17;;;;;;;4.78;0.82;;;;;;;;;;5070967;28;20040;-72
2022/07/16 12:50:43;;;;;;;2.33;0.77;;;;;;;;;;5070300;28;20048;-69
2022/07/16 12:53:09;;;;;;;0.52;0.45;;;;;;;;;;5070766;28;20040;-71
2022/07/16 13:01:05;;;;;;;3.97;0.75;;;;;;;;;;5066237;28;20093;-62
2022/07/16 13:03:31;;;;;;;1.77;0.50;;;;;;;;;;5070908;28;20044;-70
2022/07/16 13:05:57;;;;;;;1.75;0.60;;;;;;;;;;5070054;28;20063;-69
2022/07/16 13:08:23;;;;;;;0.98;0.70;;;;;;;;;;5067972;28;20042;-66
2022/07/16 13:10:49;;;;;;;1.05;0.60;;;;;;;;;;5063356;28;20046;-70
2022/07/16 13:13:16;;;;;;;1.10;0.63;;;;;;;;;;5070597;28;20043;-71
2022/07/16 13:15:42;;;;;;;0.95;0.82;;;;;;;;;;5070221;28;20048;-72
2022/07/16 13:18:08;;;;;;;3.63;0.80;;;;;;;;;;5070552;28;20470;-69
2022/07/16 13:20:34;;;;;;;0.73;0.40;;;;;;;;;;5069808;28;20048;-71
2022/07/16 13:23:00;;;;;;;1.00;0.50;;;;;;;;;;5071066;28;20110;-71
2022/07/16 13:25:26;;;;;;;3.50;0.93;;;;;;;;;;5069050;28;20622;-72
2022/07/16 13:27:54;;;;;;;1.45;0.60;;;;;;;;;;5070923;28;20052;-71
2022/07/16 13:30:20;;;;;;;1.60;0.60;;;;;;;;;;5069740;28;20048;-72
2022/07/16 13:32:46;;;;;;;1.20;0.98;;;;;;;;;;5069943;28;20040;-69
2022/07/16 13:35:13;;;;;;;0.93;0.60;;;;;;;;;;5050636;28;20094;-68